createdAt,value
2019-05-10T00:00:06.591Z,14.43
2019-05-10T00:02:51.787Z,8.30
2019-05-10T00:05:36.947Z,16.93
2019-05-10T00:08:22.046Z,14.13
2019-05-10T00:10:50.158Z,13.18
2019-05-10T00:13:18.149Z,10.65
2019-05-10T00:15:44.384Z,10.98
2019-05-10T00:18:10.593Z,9.48
2019-05-10T00:20:36.681Z,8.00
2019-05-10T00:23:03.847Z,8.48
2019-05-10T00:25:29.948Z,6.47
2019-05-10T00:27:56.152Z,9.13
2019-05-10T00:30:22.247Z,9.08
2019-05-10T00:32:48.316Z,11.48
2019-05-10T00:35:14.432Z,9.53
2019-05-10T00:37:40.542Z,9.95
2019-05-10T00:40:06.723Z,15.30
2019-05-10T00:42:32.834Z,11.20
2019-05-10T00:44:58.951Z,13.98
2019-05-10T00:47:25.122Z,10.00
2019-05-10T00:49:51.207Z,14.43
2019-05-10T00:52:17.304Z,9.15
2019-05-10T00:54:43.423Z,10.88
2019-05-10T00:57:09.511Z,10.40
2019-05-10T00:59:35.595Z,10.93
2019-05-10T01:02:01.852Z,13.95
2019-05-10T01:04:28.011Z,12.60
2019-05-10T01:06:56.383Z,14.18
2019-05-10T01:09:22.296Z,14.68
2019-05-10T01:11:48.415Z,16.45
2019-05-10T01:14:14.596Z,15.25
2019-05-10T01:16:40.767Z,13.00
2019-05-10T01:19:06.877Z,15.85
2019-05-10T01:21:33.043Z,17.45
2019-05-10T01:23:59.246Z,14.35
2019-05-10T01:26:25.331Z,14.18
2019-05-10T01:28:51.428Z,12.05
2019-05-10T01:31:17.823Z,14.28
2019-05-10T01:33:43.937Z,13.20
2019-05-10T01:36:10.045Z,19.82
2019-05-10T01:38:36.144Z,12.68
2019-05-10T01:41:02.246Z,19.00
2019-05-10T01:43:28.453Z,18.92
2019-05-10T01:45:54.557Z,15.40
2019-05-10T01:48:20.690Z,14.70
2019-05-10T01:50:46.855Z,13.05
2019-05-10T01:53:12.963Z,11.97
2019-05-10T01:55:51.731Z,13.13
2019-05-10T01:58:07.262Z,9.75
2019-05-10T02:00:33.340Z,12.33
2019-05-10T02:02:59.433Z,10.20
2019-05-10T02:05:25.619Z,11.75
2019-05-10T02:07:51.769Z,9.08
2019-05-10T02:10:17.906Z,7.15
2019-05-10T02:12:43.997Z,8.28
2019-05-10T02:15:11.195Z,6.22
2019-05-10T02:17:37.331Z,10.35
2019-05-10T02:20:05.839Z,7.33
2019-05-10T02:22:31.964Z,8.88
2019-05-10T02:24:58.071Z,8.88
2019-05-10T02:27:24.269Z,8.80
2019-05-10T02:29:50.455Z,8.70
2019-05-10T02:32:16.628Z,7.55
2019-05-10T02:34:42.735Z,10.20
2019-05-10T02:37:09.042Z,9.33
2019-05-10T02:39:35.260Z,8.00
2019-05-10T02:42:01.572Z,8.60
2019-05-10T02:44:27.738Z,7.00
2019-05-10T02:46:53.839Z,8.05
2019-05-10T02:49:19.954Z,9.68
2019-05-10T02:51:46.178Z,9.90
2019-05-10T02:54:13.275Z,8.68
2019-05-10T02:56:40.168Z,10.82
2019-05-10T02:59:07.981Z,15.63
2019-05-10T03:01:37.404Z,8.35
2019-05-10T03:04:03.517Z,11.18
2019-05-10T03:06:32.575Z,9.48
2019-05-10T03:09:04.455Z,10.20
2019-05-10T03:11:34.372Z,11.00
2019-05-10T03:14:04.272Z,7.83
2019-05-10T03:16:34.950Z,9.68
2019-05-10T03:19:02.253Z,8.15
2019-05-10T03:21:32.224Z,5.50
2019-05-10T03:23:58.655Z,6.20
2019-05-10T03:26:24.785Z,8.60
2019-05-10T03:28:50.962Z,13.98
2019-05-10T03:31:17.267Z,7.30
2019-05-10T03:33:43.528Z,9.68
2019-05-10T03:36:09.745Z,9.28
2019-05-10T03:38:36.751Z,7.03
2019-05-10T03:41:03.144Z,10.45
2019-05-10T03:43:29.259Z,7.37
2019-05-10T03:45:55.461Z,8.85
2019-05-10T03:48:21.680Z,9.98
2019-05-10T03:50:47.969Z,10.70
2019-05-10T03:53:14.170Z,7.67
2019-05-10T03:55:40.310Z,4.97
2019-05-10T03:58:06.455Z,10.93
2019-05-10T04:00:32.682Z,14.15
2019-05-10T04:02:58.876Z,8.95
2019-05-10T04:05:24.991Z,7.97
2019-05-10T04:07:51.193Z,7.12
2019-05-10T04:10:20.658Z,5.80
2019-05-10T04:12:45.423Z,6.60
2019-05-10T04:15:11.815Z,9.10
2019-05-10T04:17:38.030Z,5.83
2019-05-10T04:20:06.641Z,6.10
2019-05-10T04:22:32.960Z,4.33
2019-05-10T04:24:59.222Z,9.50
2019-05-10T04:27:32.217Z,8.35
2019-05-10T04:29:53.441Z,8.18
2019-05-10T04:32:19.543Z,8.10
2019-05-10T04:34:45.638Z,7.95
2019-05-10T04:37:13.085Z,5.05
2019-05-10T04:39:39.312Z,6.05
2019-05-10T04:42:05.542Z,7.25
2019-05-10T04:44:31.653Z,6.92
2019-05-10T04:46:57.953Z,4.70
2019-05-10T04:49:24.354Z,7.12
2019-05-10T04:51:50.678Z,4.95
2019-05-10T04:54:16.892Z,8.33
2019-05-10T04:56:43.117Z,8.15
2019-05-10T04:59:09.328Z,6.67
2019-05-10T05:01:35.532Z,6.17
2019-05-10T05:04:06.743Z,6.65
2019-05-10T05:06:32.932Z,6.87
2019-05-10T05:08:59.046Z,6.37
2019-05-10T05:11:25.260Z,7.22
2019-05-10T05:13:51.459Z,4.20
2019-05-10T05:16:17.576Z,6.72
2019-05-10T05:18:43.859Z,5.28
2019-05-10T05:21:10.176Z,4.25
2019-05-10T05:23:36.291Z,5.53
2019-05-10T05:26:02.390Z,5.20
2019-05-10T05:28:28.509Z,7.60
2019-05-10T05:30:54.627Z,3.75
2019-05-10T05:33:20.728Z,7.10
2019-05-10T05:35:46.937Z,3.17
2019-05-10T05:38:13.020Z,5.20
2019-05-10T05:40:39.265Z,6.12
2019-05-10T05:43:08.381Z,5.22
2019-05-10T05:45:34.536Z,5.92
2019-05-10T05:48:01.505Z,4.37
2019-05-10T05:50:27.741Z,6.47
2019-05-10T05:52:54.085Z,7.80
2019-05-10T05:55:22.960Z,3.47
2019-05-10T05:57:48.260Z,8.90
2019-05-10T06:00:15.094Z,5.00
2019-05-10T06:02:44.931Z,8.73
2019-05-10T06:05:09.414Z,8.03
2019-05-10T06:07:37.949Z,6.03
2019-05-10T06:10:10.279Z,4.40
2019-05-10T06:12:33.232Z,6.97
2019-05-10T06:14:59.415Z,6.17
2019-05-10T06:17:29.508Z,5.83
2019-05-10T06:19:53.515Z,4.17
2019-05-10T06:22:19.624Z,5.40
2019-05-10T06:24:46.803Z,5.67
2019-05-10T06:27:16.032Z,5.35
2019-05-10T06:29:43.190Z,7.17
2019-05-10T06:32:09.750Z,7.12
2019-05-10T06:34:38.993Z,8.20
2019-05-10T06:37:04.547Z,6.33
2019-05-10T06:39:30.737Z,7.28
2019-05-10T06:41:58.386Z,8.78
2019-05-10T06:44:30.766Z,4.25
2019-05-10T06:46:52.875Z,5.40
2019-05-10T06:49:19.087Z,4.42
2019-05-10T06:51:48.953Z,8.10
2019-05-10T06:54:13.228Z,4.85
2019-05-10T06:56:39.356Z,7.47
2019-05-10T06:59:13.540Z,6.42
2019-05-10T07:01:38.193Z,6.28
2019-05-10T07:04:01.579Z,6.47
2019-05-10T07:06:27.807Z,5.28
2019-05-10T07:08:57.713Z,4.28
2019-05-10T07:11:22.089Z,5.80
2019-05-10T07:13:52.779Z,5.97
2019-05-10T07:16:24.087Z,6.55
2019-05-10T07:18:44.317Z,5.22
2019-05-10T07:21:10.429Z,3.02
2019-05-10T07:23:39.192Z,5.87
2019-05-10T07:26:04.594Z,5.53
2019-05-10T07:28:30.809Z,4.90
2019-05-10T07:30:56.894Z,6.90
2019-05-10T07:33:23.116Z,5.22
2019-05-10T07:35:49.255Z,5.50
2019-05-10T07:38:15.477Z,4.72
2019-05-10T07:40:41.682Z,4.17
2019-05-10T07:43:09.832Z,6.90
2019-05-10T07:45:36.017Z,4.92
2019-05-10T07:48:08.712Z,5.12
2019-05-10T07:50:32.510Z,6.28
2019-05-10T07:52:58.612Z,4.72
2019-05-10T07:55:28.676Z,4.10
2019-05-10T07:57:52.732Z,3.58
2019-05-10T08:00:19.521Z,5.20
2019-05-10T08:02:51.161Z,5.58
2019-05-10T08:05:15.492Z,8.25
2019-05-10T08:07:41.745Z,3.90
2019-05-10T08:10:08.862Z,5.40
2019-05-10T08:12:40.663Z,4.90
2019-05-10T08:15:08.436Z,3.98
2019-05-10T08:17:35.513Z,4.72
2019-05-10T08:20:09.015Z,3.25
2019-05-10T08:22:41.140Z,4.80
2019-05-10T08:25:02.338Z,4.67
2019-05-10T08:27:28.466Z,3.80
2019-05-10T08:30:17.952Z,2.33
2019-05-10T08:32:25.406Z,3.67
2019-05-10T08:34:54.870Z,3.25
2019-05-10T08:37:30.730Z,4.40
2019-05-10T08:39:49.448Z,3.33
2019-05-10T08:42:32.661Z,6.65
2019-05-10T08:44:42.848Z,4.50
2019-05-10T08:47:15.684Z,3.35
2019-05-10T08:49:45.985Z,2.83
2019-05-10T08:52:05.146Z,4.08
2019-05-10T08:54:32.850Z,4.40
2019-05-10T08:57:01.205Z,5.47
2019-05-10T08:59:30.673Z,3.02
2019-05-10T09:01:55.360Z,2.87
2019-05-10T09:04:22.258Z,5.97
2019-05-10T09:06:55.954Z,3.22
2019-05-10T09:09:16.818Z,2.55
2019-05-10T09:11:44.472Z,2.52
2019-05-10T09:14:14.451Z,3.95
2019-05-10T09:16:43.303Z,4.92
2019-05-10T09:19:07.031Z,6.28
2019-05-10T09:21:33.154Z,4.25
2019-05-10T09:24:03.384Z,2.37
2019-05-10T09:26:27.263Z,3.83
2019-05-10T09:28:57.582Z,5.90
2019-05-10T09:31:25.289Z,8.33
2019-05-10T09:33:51.504Z,7.90
2019-05-10T09:36:17.516Z,6.42
2019-05-10T09:38:46.344Z,4.12
2019-05-10T09:41:11.926Z,3.35
2019-05-10T09:43:40.478Z,3.87
2019-05-10T09:46:06.384Z,5.22
2019-05-10T09:48:33.269Z,3.83
2019-05-10T09:51:03.432Z,3.62
2019-05-10T09:53:30.456Z,3.55
2019-05-10T09:56:02.404Z,6.28
2019-05-10T09:58:23.820Z,3.40
2019-05-10T10:00:50.044Z,5.83
2019-05-10T10:03:16.330Z,4.47
2019-05-10T10:05:42.539Z,5.78
2019-05-10T10:08:10.623Z,3.92
2019-05-10T10:10:37.291Z,4.47
2019-05-10T10:13:11.405Z,3.20
2019-05-10T10:15:34.204Z,4.33
2019-05-10T10:17:59.549Z,5.50
2019-05-10T10:20:29.810Z,5.75
2019-05-10T10:22:54.650Z,4.80
2019-05-10T10:25:21.004Z,5.17
2019-05-10T10:27:48.043Z,4.12
2019-05-10T10:30:20.544Z,5.22
2019-05-10T10:32:44.577Z,6.65
2019-05-10T10:35:13.156Z,3.72
2019-05-10T10:37:38.861Z,4.65
2019-05-10T10:40:08.463Z,4.22
2019-05-10T10:42:33.592Z,7.35
2019-05-10T10:44:59.744Z,4.33
2019-05-10T10:47:28.395Z,7.25
2019-05-10T10:49:53.881Z,6.20
2019-05-10T10:52:20.001Z,4.15
2019-05-10T10:54:47.897Z,3.47
2019-05-10T10:57:14.119Z,4.83
2019-05-10T10:59:40.588Z,5.33
2019-05-10T11:02:28.786Z,6.70
2019-05-10T11:04:34.660Z,7.72
2019-05-10T11:07:10.489Z,5.45
2019-05-10T11:12:00.956Z,5.25
2019-05-10T11:14:31.967Z,4.75
2019-05-10T11:16:57.066Z,5.03
2019-05-10T11:19:23.223Z,6.53
2019-05-10T11:21:51.255Z,5.15
2019-05-10T11:24:18.655Z,6.58
2019-05-10T11:26:45.296Z,5.78
2019-05-10T11:29:14.243Z,7.40
2019-05-10T11:31:41.450Z,4.55
2019-05-10T11:34:07.531Z,3.65
2019-05-10T11:36:33.623Z,3.25
2019-05-10T11:39:01.913Z,2.35
2019-05-10T11:41:28.095Z,4.45
2019-05-10T11:43:57.987Z,5.12
2019-05-10T11:46:22.177Z,7.40
2019-05-10T11:48:50.736Z,2.72
2019-05-10T11:51:17.598Z,5.80
2019-05-10T11:53:48.941Z,5.83
2019-05-10T11:56:13.969Z,4.15
2019-05-10T11:58:49.063Z,3.37
2019-05-10T12:01:16.370Z,4.95
2019-05-10T12:03:35.981Z,7.80
2019-05-10T12:06:05.136Z,2.58
2019-05-10T12:08:30.124Z,3.65
2019-05-10T12:11:07.629Z,4.53
2019-05-10T12:13:26.736Z,5.50
2019-05-10T12:15:52.839Z,4.33
2019-05-10T12:20:58.613Z,4.08
2019-05-10T12:23:23.001Z,4.47
2019-05-10T12:25:58.801Z,5.35
2019-05-10T12:26:06.532Z,2.25
2019-05-10T12:28:15.509Z,6.72
2019-05-10T12:30:40.917Z,2.50
2019-05-10T12:33:09.694Z,2.58
2019-05-10T12:35:39.277Z,4.67
2019-05-10T12:38:02.987Z,4.55
2019-05-10T12:40:31.385Z,3.75
2019-05-10T12:42:57.303Z,4.33
2019-05-10T12:45:23.609Z,5.00
2019-05-10T12:47:52.059Z,3.52
2019-05-10T12:50:19.220Z,5.00
2019-05-10T12:52:50.335Z,2.72
2019-05-10T12:55:13.479Z,4.90
2019-05-10T12:57:43.086Z,4.28
2019-05-10T13:00:13.472Z,6.78
2019-05-10T13:02:37.902Z,5.10
2019-05-10T13:05:05.079Z,4.65
2019-05-10T13:07:31.193Z,5.37
2019-05-10T13:10:03.920Z,3.60
2019-05-10T13:12:25.301Z,2.98
2019-05-10T13:14:52.883Z,4.37
2019-05-10T13:17:19.316Z,4.72
2019-05-10T13:19:45.499Z,5.22
2019-05-10T13:22:11.746Z,4.28
2019-05-10T13:24:41.814Z,4.30
2019-05-10T13:27:07.968Z,4.40
2019-05-10T13:29:34.224Z,6.45
2019-05-10T13:32:03.983Z,5.87
2019-05-10T13:34:30.104Z,3.12
2019-05-10T13:36:56.280Z,3.95
2019-05-10T13:39:25.522Z,8.28
2019-05-10T13:41:50.697Z,3.52
2019-05-10T13:44:16.888Z,4.45
2019-05-10T13:46:43.014Z,4.05
2019-05-10T13:49:10.273Z,7.62
2019-05-10T13:51:37.706Z,7.25
2019-05-10T13:54:05.238Z,6.42
2019-05-10T13:56:31.747Z,7.17
2019-05-10T13:58:57.888Z,7.03
2019-05-10T14:01:25.103Z,4.40
2019-05-10T14:04:00.359Z,4.97
2019-05-10T14:06:19.312Z,7.35
2019-05-10T14:08:48.422Z,6.22
2019-05-10T14:11:13.748Z,4.85
2019-05-10T14:13:41.471Z,6.97
2019-05-10T14:16:18.364Z,5.70
2019-05-10T14:18:36.710Z,5.30
2019-05-10T14:21:03.148Z,8.03
2019-05-10T14:23:35.147Z,7.72
2019-05-10T14:26:09.250Z,5.33
2019-05-10T14:28:32.180Z,5.33
2019-05-10T14:30:59.050Z,3.95
2019-05-10T14:33:25.548Z,5.35
2019-05-10T14:35:55.321Z,3.75
2019-05-10T14:38:22.672Z,2.42
2019-05-10T14:40:47.679Z,5.03
2019-05-10T14:43:13.920Z,6.37
2019-05-10T14:45:40.042Z,5.25
2019-05-10T14:48:06.165Z,4.92
2019-05-10T14:50:32.383Z,5.45
2019-05-10T14:52:58.557Z,5.25
2019-05-10T14:55:28.181Z,4.60
2019-05-10T14:57:52.737Z,4.42
2019-05-10T15:00:19.825Z,3.80
2019-05-10T15:02:45.951Z,2.27
2019-05-10T15:05:16.047Z,8.15
2019-05-10T15:07:40.303Z,4.25
2019-05-10T15:10:06.519Z,5.25
2019-05-10T15:12:32.713Z,6.87
2019-05-10T15:14:58.812Z,3.55
2019-05-10T15:17:24.992Z,7.45
2019-05-10T15:19:57.621Z,4.15
2019-05-10T15:22:23.214Z,6.97
2019-05-10T15:24:47.748Z,4.25
2019-05-10T15:27:16.107Z,7.83
2019-05-10T15:29:42.430Z,3.08
2019-05-10T15:32:08.603Z,4.08
2019-05-10T15:34:35.119Z,5.95
2019-05-10T15:37:02.595Z,3.08
2019-05-10T15:39:30.538Z,4.50
2019-05-10T15:41:59.178Z,5.78
2019-05-10T15:44:31.218Z,3.67
2019-05-10T15:46:52.874Z,3.15
2019-05-10T15:49:23.446Z,2.83
2019-05-10T15:51:49.271Z,6.67
2019-05-10T15:54:14.995Z,4.87
2019-05-10T15:59:12.720Z,3.67
2019-05-10T15:59:23.878Z,5.85
2019-05-10T16:01:37.272Z,5.70
2019-05-10T16:04:03.571Z,6.15
2019-05-10T16:06:32.651Z,3.22
2019-05-10T16:09:03.569Z,2.33
2019-05-10T16:11:25.736Z,5.12
2019-05-10T16:13:54.813Z,3.17
2019-05-10T16:16:19.937Z,3.92
2019-05-10T16:18:46.147Z,2.25
2019-05-10T16:21:15.213Z,3.92
2019-05-10T16:23:41.491Z,3.55
2019-05-10T16:26:08.376Z,2.67
2019-05-10T16:28:34.537Z,5.05
2019-05-10T16:31:00.792Z,3.87
2019-05-10T16:33:27.056Z,4.22
2019-05-10T16:35:53.187Z,2.85
2019-05-10T16:38:19.316Z,3.22
2019-05-10T16:40:56.797Z,2.98
2019-05-10T16:43:18.965Z,1.52
2019-05-10T16:45:41.504Z,4.78
2019-05-10T16:48:07.639Z,2.37
2019-05-10T16:50:33.962Z,2.12
2019-05-10T16:53:05.901Z,2.70
2019-05-10T16:55:28.332Z,4.05
2019-05-10T16:57:54.525Z,3.95
2019-05-10T17:00:21.007Z,3.85
2019-05-10T17:02:47.111Z,4.67
2019-05-10T17:05:15.341Z,3.12
2019-05-10T17:07:41.420Z,2.05
2019-05-10T17:10:07.655Z,3.55
2019-05-10T17:12:33.763Z,2.83
2019-05-10T17:15:02.918Z,3.77
2019-05-10T17:17:31.363Z,3.33
2019-05-10T17:19:58.639Z,2.87
2019-05-10T17:22:23.927Z,1.20
2019-05-10T17:24:57.050Z,4.42
2019-05-10T17:27:20.350Z,2.10
2019-05-10T17:29:49.751Z,3.12
2019-05-10T17:32:18.652Z,3.00
2019-05-10T17:34:42.442Z,2.90
2019-05-10T17:37:08.551Z,3.72
2019-05-10T17:39:34.772Z,3.80
2019-05-10T17:42:03.367Z,4.22
2019-05-10T17:44:28.996Z,2.30
2019-05-10T17:46:57.322Z,3.27
2019-05-10T17:49:23.316Z,3.05
2019-05-10T17:51:49.565Z,4.85
2019-05-10T17:54:15.748Z,4.85
2019-05-10T17:56:41.844Z,2.52
2019-05-10T17:59:12.112Z,4.28
2019-05-10T18:01:35.981Z,2.17
2019-05-10T18:04:02.207Z,2.62
2019-05-10T18:06:28.418Z,2.50
2019-05-10T18:08:54.634Z,3.95
2019-05-10T18:11:20.824Z,1.95
2019-05-10T18:13:46.937Z,2.00
2019-05-10T18:16:13.507Z,2.72
2019-05-10T18:18:46.084Z,4.28
2019-05-10T18:21:07.711Z,4.00
2019-05-10T18:23:33.828Z,3.52
2019-05-10T18:26:00.517Z,2.83
2019-05-10T18:28:26.731Z,3.98
2019-05-10T18:30:52.940Z,2.67
2019-05-10T18:33:19.169Z,3.12
2019-05-10T18:35:47.487Z,5.85
2019-05-10T18:38:14.472Z,2.58
2019-05-10T18:40:40.776Z,5.65
2019-05-10T18:43:06.876Z,3.60
2019-05-10T18:45:33.066Z,3.77
2019-05-10T18:47:59.272Z,2.02
2019-05-10T18:50:25.479Z,3.65
2019-05-10T18:52:51.574Z,4.35
2019-05-10T18:55:17.774Z,3.95
2019-05-10T18:57:45.310Z,3.08
2019-05-10T19:00:17.490Z,2.87
2019-05-10T19:02:40.841Z,3.15
2019-05-10T19:05:07.245Z,2.90
2019-05-10T19:07:33.347Z,3.80
2019-05-10T19:09:59.488Z,2.00
2019-05-10T19:12:25.995Z,5.58
2019-05-10T19:14:52.435Z,4.75
2019-05-10T19:17:18.604Z,2.60
2019-05-10T19:19:44.744Z,2.17
2019-05-10T19:22:10.917Z,4.20
2019-05-10T19:24:37.205Z,4.33
2019-05-10T19:27:07.551Z,3.55
2019-05-10T19:29:31.509Z,3.65
2019-05-10T19:31:57.656Z,3.65
2019-05-10T19:34:23.782Z,3.98
2019-05-10T19:36:50.038Z,4.20
2019-05-10T19:39:16.210Z,3.72
2019-05-10T19:41:42.339Z,4.67
2019-05-10T19:44:08.510Z,3.55
2019-05-10T19:47:32.293Z,2.33
2019-05-10T19:49:07.441Z,3.08
2019-05-10T19:51:31.428Z,4.72
2019-05-10T19:53:57.715Z,3.30
2019-05-10T19:56:23.824Z,2.50
2019-05-10T19:58:49.927Z,4.12
2019-05-10T20:01:16.092Z,2.45
2019-05-10T20:03:42.325Z,5.25
2019-05-10T20:06:08.430Z,3.60
2019-05-10T20:08:34.516Z,1.77
2019-05-10T20:11:03.998Z,2.62
2019-05-10T20:13:30.234Z,5.83
2019-05-10T20:15:56.432Z,5.70
2019-05-10T20:18:22.540Z,6.40
2019-05-10T20:20:48.713Z,4.50
2019-05-10T20:23:15.743Z,6.45
2019-05-10T20:25:41.921Z,2.98
2019-05-10T20:28:08.141Z,3.90
2019-05-10T20:30:34.343Z,4.03
2019-05-10T20:33:03.750Z,3.92
2019-05-10T20:35:29.861Z,5.25
2019-05-10T20:38:02.170Z,6.97
2019-05-10T20:40:24.151Z,5.10
2019-05-10T20:42:50.269Z,2.30
2019-05-10T20:45:16.573Z,4.40
2019-05-10T20:47:42.759Z,4.72
2019-05-10T20:50:09.123Z,6.47
2019-05-10T20:52:35.324Z,3.65
2019-05-10T20:55:02.293Z,3.85
2019-05-10T20:57:28.466Z,2.72
2019-05-10T20:59:54.586Z,3.27
2019-05-10T21:02:20.792Z,5.95
2019-05-10T21:04:46.966Z,5.22
2019-05-10T21:07:13.043Z,4.08
2019-05-10T21:09:39.151Z,3.02
2019-05-10T21:12:05.337Z,3.87
2019-05-10T21:14:31.426Z,3.87
2019-05-10T21:16:57.547Z,5.58
2019-05-10T21:19:23.774Z,5.03
2019-05-10T21:21:50.014Z,3.65
2019-05-10T21:24:16.161Z,5.12
2019-05-10T21:26:42.738Z,3.22
2019-05-10T21:29:09.519Z,2.08
2019-05-10T21:31:36.006Z,3.85
2019-05-10T21:34:09.629Z,4.78
2019-05-10T21:36:32.904Z,2.35
2019-05-10T21:38:59.116Z,4.92
2019-05-10T21:41:25.303Z,3.67
2019-05-10T21:43:51.453Z,4.25
2019-05-10T21:46:17.569Z,4.30
2019-05-10T21:48:43.707Z,5.97
2019-05-10T21:51:09.932Z,3.35
2019-05-10T21:53:36.305Z,5.35
2019-05-10T21:56:02.456Z,5.42
2019-05-10T21:58:28.610Z,4.80
2019-05-10T22:00:55.142Z,7.70
2019-05-10T22:03:21.276Z,4.80
2019-05-10T22:05:47.386Z,6.37
2019-05-10T22:08:13.565Z,5.83
2019-05-10T22:10:39.865Z,3.83
2019-05-10T22:13:06.163Z,5.15
2019-05-10T22:15:32.365Z,3.60
2019-05-10T22:17:58.552Z,3.15
2019-05-10T22:20:24.837Z,5.12
2019-05-10T22:22:51.098Z,3.50
2019-05-10T22:25:17.350Z,3.77
2019-05-10T22:27:43.538Z,5.47
2019-05-10T22:30:12.171Z,4.25
2019-05-10T22:32:38.224Z,4.37
2019-05-10T22:35:05.754Z,5.05
2019-05-10T22:37:31.971Z,6.83
2019-05-10T22:39:58.160Z,3.95
2019-05-10T22:42:24.288Z,2.45
2019-05-10T22:44:50.394Z,3.02
2019-05-10T22:47:16.531Z,7.30
2019-05-10T22:49:42.760Z,6.35
2019-05-10T22:52:09.069Z,3.55
2019-05-10T22:54:35.250Z,4.12
2019-05-10T22:57:01.349Z,5.12
2019-05-10T22:59:27.463Z,6.40
2019-05-10T23:01:53.675Z,6.83
2019-05-10T23:04:19.875Z,7.08
2019-05-10T23:06:45.965Z,4.58
2019-05-10T23:09:24.162Z,3.37
2019-05-10T23:11:40.112Z,5.47
2019-05-10T23:14:06.321Z,7.20
2019-05-10T23:16:32.415Z,4.03
2019-05-10T23:18:58.620Z,4.40
2019-05-10T23:21:24.732Z,7.17
2019-05-10T23:23:50.839Z,4.47
2019-05-10T23:26:16.992Z,4.50
2019-05-10T23:28:43.185Z,4.20
2019-05-10T23:31:09.462Z,4.92
2019-05-10T23:33:35.572Z,6.83
2019-05-10T23:36:01.668Z,5.05
2019-05-10T23:38:27.863Z,4.95
2019-05-10T23:40:53.979Z,6.05
2019-05-10T23:43:20.211Z,5.92
2019-05-10T23:45:46.408Z,7.08
2019-05-10T23:48:12.524Z,5.70
2019-05-10T23:50:38.726Z,4.03
2019-05-10T23:53:04.860Z,3.95
2019-05-10T23:55:30.982Z,2.95
2019-05-10T23:57:57.093Z,5.22
